sensor_id;sensor_type;location;lat;lon;timestamp;pressure;altitude;pressure_sealevel;temperature;humidity
20909;BME280;10614;53.198;6.570;2023-05-20T00:01:16;102744.44;;;12.99;89.73
20909;BME280;10614;53.198;6.570;2023-05-20T00:03:19;102738.38;;;12.94;89.79
20909;BME280;10614;53.198;6.570;2023-05-20T00:05:23;102732.31;;;12.91;90.29
20909;BME280;10614;53.198;6.570;2023-05-20T00:07:25;102720.25;;;12.76;90.60
20909;BME280;10614;53.198;6.570;2023-05-20T00:09:29;102693.22;;;12.61;91.33
20909;BME280;10614;53.198;6.570;2023-05-20T00:11:31;102727.19;;;12.81;91.63
20909;BME280;10614;53.198;6.570;2023-05-20T00:13:35;102734.19;;;12.85;90.91
20909;BME280;10614;53.198;6.570;2023-05-20T00:15:37;102702.94;;;12.59;91.27
20909;BME280;10614;53.198;6.570;2023-05-20T00:17:39;102728.16;;;12.76;91.29
20909;BME280;10614;53.198;6.570;2023-05-20T00:19:41;102703.78;;;12.63;91.61
20909;BME280;10614;53.198;6.570;2023-05-20T00:21:45;102737.00;;;12.76;92.40
20909;BME280;10614;53.198;6.570;2023-05-20T00:23:47;102701.22;;;12.58;92.99
20909;BME280;10614;53.198;6.570;2023-05-20T00:25:49;102727.38;;;12.72;92.29
20909;BME280;10614;53.198;6.570;2023-05-20T00:27:51;102724.75;;;12.71;92.49
20909;BME280;10614;53.198;6.570;2023-05-20T00:29:53;102728.31;;;12.68;92.83
20909;BME280;10614;53.198;6.570;2023-05-20T00:31:55;102722.19;;;12.67;92.60
20909;BME280;10614;53.198;6.570;2023-05-20T00:33:57;102722.19;;;12.67;92.20
20909;BME280;10614;53.198;6.570;2023-05-20T00:35:59;102716.06;;;12.64;92.74
20909;BME280;10614;53.198;6.570;2023-05-20T00:38:02;102717.84;;;12.63;92.52
20909;BME280;10614;53.198;6.570;2023-05-20T00:40:06;102713.56;;;12.58;93.05
20909;BME280;10614;53.198;6.570;2023-05-20T00:42:10;102717.97;;;12.57;93.13
20909;BME280;10614;53.198;6.570;2023-05-20T00:44:11;102714.44;;;12.57;92.94
20909;BME280;10614;53.198;6.570;2023-05-20T00:46:14;102710.16;;;12.51;93.43
20909;BME280;10614;53.198;6.570;2023-05-20T00:48:16;102718.88;;;12.55;93.46
20909;BME280;10614;53.198;6.570;2023-05-20T00:50:18;102711.09;;;12.49;93.87
20909;BME280;10614;53.198;6.570;2023-05-20T00:52:20;102684.97;;;12.32;93.49
20909;BME280;10614;53.198;6.570;2023-05-20T00:54:24;102681.53;;;12.27;94.03
20909;BME280;10614;53.198;6.570;2023-05-20T00:56:27;102714.66;;;12.46;93.69
20909;BME280;10614;53.198;6.570;2023-05-20T00:58:29;102718.16;;;12.45;94.16
20909;BME280;10614;53.198;6.570;2023-05-20T01:00:32;102685.13;;;12.22;94.31
20909;BME280;10614;53.198;6.570;2023-05-20T01:02:34;102701.63;;;12.35;94.53
20909;BME280;10614;53.198;6.570;2023-05-20T01:04:36;102716.53;;;12.38;94.44
20909;BME280;10614;53.198;6.570;2023-05-20T01:06:38;102693.00;;;12.25;93.75
20909;BME280;10614;53.198;6.570;2023-05-20T01:08:40;102701.78;;;12.28;95.14
20909;BME280;10614;53.198;6.570;2023-05-20T01:10:46;102702.66;;;12.27;94.98
20909;BME280;10614;53.198;6.570;2023-05-20T01:12:53;102713.22;;;12.27;95.15
20909;BME280;10614;53.198;6.570;2023-05-20T01:15:04;102683.63;;;12.08;95.16
20909;BME280;10614;53.198;6.570;2023-05-20T01:17:09;102669.69;;;11.98;95.42
20909;BME280;10614;53.198;6.570;2023-05-20T01:19:21;102697.63;;;12.13;95.03
20909;BME280;10614;53.198;6.570;2023-05-20T01:21:35;102700.28;;;12.11;94.88
20909;BME280;10614;53.198;6.570;2023-05-20T01:23:41;102706.41;;;12.13;95.16
20909;BME280;10614;53.198;6.570;2023-05-20T01:25:43;102701.22;;;12.09;95.93
20909;BME280;10614;53.198;6.570;2023-05-20T01:27:47;102702.97;;;12.08;96.77
20909;BME280;10614;53.198;6.570;2023-05-20T01:34:18;102675.84;;;11.98;96.31
20909;BME280;10614;53.198;6.570;2023-05-20T01:47:17;102676.97;;;11.82;97.89
20909;BME280;10614;53.198;6.570;2023-05-20T01:49:19;102639.63;;;11.52;97.35
20909;BME280;10614;53.198;6.570;2023-05-20T01:51:22;102703.28;;;11.90;96.98
20909;BME280;10614;53.198;6.570;2023-05-20T01:59:56;102621.41;;;11.35;98.50
20909;BME280;10614;53.198;6.570;2023-05-20T02:02:06;102678.09;;;11.66;98.77
20909;BME280;10614;53.198;6.570;2023-05-20T02:06:20;102658.94;;;11.54;98.94
20909;BME280;10614;53.198;6.570;2023-05-20T02:08:22;102667.66;;;11.58;98.86
20909;BME280;10614;53.198;6.570;2023-05-20T02:17:11;102693.03;;;11.67;99.77
20909;BME280;10614;53.198;6.570;2023-05-20T02:19:14;102686.06;;;11.62;99.98
20909;BME280;10614;53.198;6.570;2023-05-20T02:21:24;102691.34;;;11.62;99.70
20909;BME280;10614;53.198;6.570;2023-05-20T02:23:25;102686.13;;;11.59;100.00
20909;BME280;10614;53.198;6.570;2023-05-20T02:25:27;102685.25;;;11.57;99.92
20909;BME280;10614;53.198;6.570;2023-05-20T02:27:29;102684.47;;;11.52;100.00
20909;BME280;10614;53.198;6.570;2023-05-20T02:29:31;102687.06;;;11.54;100.00
20909;BME280;10614;53.198;6.570;2023-05-20T02:31:34;102680.06;;;11.51;100.00
20909;BME280;10614;53.198;6.570;2023-05-20T02:33:36;102673.97;;;11.48;100.00
20909;BME280;10614;53.198;6.570;2023-05-20T02:35:38;102683.63;;;11.49;100.00
20909;BME280;10614;53.198;6.570;2023-05-20T02:37:41;102686.31;;;11.46;100.00
20909;BME280;10614;53.198;6.570;2023-05-20T02:39:44;102681.97;;;11.43;100.00
20909;BME280;10614;53.198;6.570;2023-05-20T02:41:45;102676.69;;;11.40;100.00
20909;BME280;10614;53.198;6.570;2023-05-20T02:43:47;102687.28;;;11.38;100.00
20909;BME280;10614;53.198;6.570;2023-05-20T02:45:49;102675.94;;;11.33;100.00
20909;BME280;10614;53.198;6.570;2023-05-20T02:47:51;102684.69;;;11.35;100.00
20909;BME280;10614;53.198;6.570;2023-05-20T02:49:53;102662.84;;;11.26;100.00
20909;BME280;10614;53.198;6.570;2023-05-20T02:51:55;102675.16;;;11.25;100.00
20909;BME280;10614;53.198;6.570;2023-05-20T02:53:58;102657.69;;;11.16;100.00
20909;BME280;10614;53.198;6.570;2023-05-20T03:41:29;102690.34;;;11.05;100.00
20909;BME280;10614;53.198;6.570;2023-05-20T03:43:36;102683.34;;;11.04;100.00
20909;BME280;10614;53.198;6.570;2023-05-20T03:45:38;102681.59;;;11.03;100.00
20909;BME280;10614;53.198;6.570;2023-05-20T03:54:21;102673.84;;;10.93;100.00
20909;BME280;10614;53.198;6.570;2023-05-20T03:58:35;102670.28;;;10.93;100.00
20909;BME280;10614;53.198;6.570;2023-05-20T04:00:40;102653.66;;;10.89;100.00
20909;BME280;10614;53.198;6.570;2023-05-20T04:04:53;102616.94;;;10.77;100.00
20909;BME280;10614;53.198;6.570;2023-05-20T04:07:00;102658.72;;;11.06;100.00
20909;BME280;10614;53.198;6.570;2023-05-20T04:09:05;102688.28;;;11.30;100.00
20909;BME280;10614;53.198;6.570;2023-05-20T04:11:08;102614.97;;;10.94;100.00
20909;BME280;10614;53.198;6.570;2023-05-20T04:13:13;102681.16;;;11.36;100.00
20909;BME280;10614;53.198;6.570;2023-05-20T04:28:14;102638.19;;;11.28;100.00
20909;BME280;10614;53.198;6.570;2023-05-20T04:30:18;102666.94;;;11.47;100.00
20909;BME280;10614;53.198;6.570;2023-05-20T04:32:22;102634.69;;;11.29;100.00
20909;BME280;10614;53.198;6.570;2023-05-20T04:34:28;102631.13;;;11.32;100.00
20909;BME280;10614;53.198;6.570;2023-05-20T04:36:38;102704.31;;;11.78;100.00
20909;BME280;10614;53.198;6.570;2023-05-20T04:40:53;102701.53;;;11.89;100.00
20909;BME280;10614;53.198;6.570;2023-05-20T04:42:59;102661.34;;;11.68;100.00
20909;BME280;10614;53.198;6.570;2023-05-20T04:45:03;102643.06;;;11.59;100.00
20909;BME280;10614;53.198;6.570;2023-05-20T04:47:08;102674.38;;;11.79;100.00
20909;BME280;10614;53.198;6.570;2023-05-20T04:49:12;102705.69;;;12.03;100.00
20909;BME280;10614;53.198;6.570;2023-05-20T05:19:29;102676.28;;;12.25;96.19
20909;BME280;10614;53.198;6.570;2023-05-20T05:21:31;102671.78;;;12.30;95.73
20909;BME280;10614;53.198;6.570;2023-05-20T05:23:33;102667.44;;;12.29;96.21
20909;BME280;10614;53.198;6.570;2023-05-20T05:25:36;102690.78;;;12.51;94.62
20909;BME280;10614;53.198;6.570;2023-05-20T05:27:38;102673.16;;;12.51;95.12
20909;BME280;10614;53.198;6.570;2023-05-20T05:29:42;102707.13;;;12.71;94.20
20909;BME280;10614;53.198;6.570;2023-05-20T05:40:26;102680.91;;;13.05;92.33
20909;BME280;10614;53.198;6.570;2023-05-20T05:42:29;102710.44;;;13.27;91.45
20909;BME280;10614;53.198;6.570;2023-05-20T05:44:31;102664.16;;;13.05;90.70
20909;BME280;10614;53.198;6.570;2023-05-20T05:46:33;102665.78;;;13.10;90.79
20909;BME280;10614;53.198;6.570;2023-05-20T05:48:36;102656.25;;;13.03;89.69
20909;BME280;10614;53.198;6.570;2023-05-20T05:50:41;102682.38;;;13.19;89.13
20909;BME280;10614;53.198;6.570;2023-05-20T05:52:47;102688.63;;;13.15;88.44
20909;BME280;10614;53.198;6.570;2023-05-20T05:54:50;102645.22;;;12.83;88.13
20909;BME280;10614;53.198;6.570;2023-05-20T05:56:56;102650.41;;;12.87;87.71
20909;BME280;10614;53.198;6.570;2023-05-20T05:58:59;102661.94;;;12.85;87.75
20909;BME280;10614;53.198;6.570;2023-05-20T06:01:01;102660.09;;;12.90;87.49
20909;BME280;10614;53.198;6.570;2023-05-20T06:03:03;102675.03;;;12.91;86.94
20909;BME280;10614;53.198;6.570;2023-05-20T06:05:05;102686.44;;;12.93;86.66
20909;BME280;10614;53.198;6.570;2023-05-20T06:07:07;102683.03;;;12.86;85.27
20909;BME280;10614;53.198;6.570;2023-05-20T06:09:09;102690.13;;;12.86;84.75
20909;BME280;10614;53.198;6.570;2023-05-20T06:11:11;102676.94;;;12.83;84.88
20909;BME280;10614;53.198;6.570;2023-05-20T06:13:19;102683.97;;;12.85;85.31
20909;BME280;10614;53.198;6.570;2023-05-20T06:15:21;102689.25;;;12.85;84.28
20909;BME280;10614;53.198;6.570;2023-05-20T06:17:22;102694.53;;;12.85;84.81
20909;BME280;10614;53.198;6.570;2023-05-20T06:19:24;102696.25;;;12.88;84.84
20909;BME280;10614;53.198;6.570;2023-05-20T06:21:29;102695.31;;;12.89;85.23
20909;BME280;10614;53.198;6.570;2023-05-20T06:23:31;102698.88;;;12.88;84.99
20909;BME280;10614;53.198;6.570;2023-05-20T06:25:35;102712.09;;;12.88;84.89
20909;BME280;10614;53.198;6.570;2023-05-20T06:27:36;102680.66;;;12.74;85.26
20909;BME280;10614;53.198;6.570;2023-05-20T06:29:42;102698.91;;;12.85;85.00
20909;BME280;10614;53.198;6.570;2023-05-20T06:31:44;102676.25;;;12.73;84.78
20909;BME280;10614;53.198;6.570;2023-05-20T06:33:46;102705.09;;;12.85;84.63
20909;BME280;10614;53.198;6.570;2023-05-20T06:35:48;102709.50;;;12.85;84.51
20909;BME280;10614;53.198;6.570;2023-05-20T06:37:50;102682.53;;;12.69;84.71
20909;BME280;10614;53.198;6.570;2023-05-20T06:39:53;102705.09;;;12.85;84.50
20909;BME280;10614;53.198;6.570;2023-05-20T06:41:56;102699.91;;;12.81;83.80
20909;BME280;10614;53.198;6.570;2023-05-20T06:43:58;102685.09;;;12.72;83.42
20909;BME280;10614;53.198;6.570;2023-05-20T06:46:02;102709.47;;;12.86;83.90
20909;BME280;10614;53.198;6.570;2023-05-20T06:48:05;102691.16;;;12.77;83.23
20909;BME280;10614;53.198;6.570;2023-05-20T06:50:08;102704.13;;;12.89;83.00
20909;BME280;10614;53.198;6.570;2023-05-20T06:52:10;102683.13;;;12.82;82.45
20909;BME280;10614;53.198;6.570;2023-05-20T06:54:12;102702.41;;;12.88;82.59
20909;BME280;10614;53.198;6.570;2023-05-20T06:56:14;102686.47;;;12.92;82.39
20909;BME280;10614;53.198;6.570;2023-05-20T06:58:16;102694.28;;;12.98;81.57
20909;BME280;10614;53.198;6.570;2023-05-20T07:00:34;102685.44;;;12.99;81.42
20909;BME280;10614;53.198;6.570;2023-05-20T07:02:41;102665.47;;;12.85;81.66
20909;BME280;10614;53.198;6.570;2023-05-20T07:04:50;102673.13;;;12.98;81.76
20909;BME280;10614;53.198;6.570;2023-05-20T07:06:58;102690.59;;;13.06;80.89
20909;BME280;10614;53.198;6.570;2023-05-20T07:09:00;102658.31;;;12.91;80.46
20909;BME280;10614;53.198;6.570;2023-05-20T07:11:02;102644.22;;;12.90;80.08
20909;BME280;10614;53.198;6.570;2023-05-20T07:13:04;102675.50;;;13.12;80.02
20909;BME280;10614;53.198;6.570;2023-05-20T07:15:07;102646.78;;;12.93;80.35
20909;BME280;10614;53.198;6.570;2023-05-20T07:17:09;102675.41;;;13.15;79.70
20909;BME280;10614;53.198;6.570;2023-05-20T07:19:13;102668.31;;;13.17;79.72
20909;BME280;10614;53.198;6.570;2023-05-20T07:21:14;102637.81;;;13.00;79.58
20909;BME280;10614;53.198;6.570;2023-05-20T07:23:17;102679.66;;;13.22;79.95
20909;BME280;10614;53.198;6.570;2023-05-20T07:25:20;102677.00;;;13.23;78.79
20909;BME280;10614;53.198;6.570;2023-05-20T07:27:22;102660.19;;;13.26;79.21
20909;BME280;10614;53.198;6.570;2023-05-20T07:29:24;102673.38;;;13.29;79.46
20909;BME280;10614;53.198;6.570;2023-05-20T07:31:26;102671.56;;;13.31;78.73
20909;BME280;10614;53.198;6.570;2023-05-20T07:33:27;102665.41;;;13.30;78.71
20909;BME280;10614;53.198;6.570;2023-05-20T07:35:31;102672.31;;;13.36;78.97
20909;BME280;10614;53.198;6.570;2023-05-20T07:37:33;102673.91;;;13.45;79.01
20909;BME280;10614;53.198;6.570;2023-05-20T07:39:37;102657.19;;;13.43;79.14
20909;BME280;10614;53.198;6.570;2023-05-20T07:41:39;102671.03;;;13.56;78.55
20909;BME280;10614;53.198;6.570;2023-05-20T07:43:41;102657.78;;;13.56;77.80
20909;BME280;10614;53.198;6.570;2023-05-20T07:45:43;102667.31;;;13.63;77.81
20909;BME280;10614;53.198;6.570;2023-05-20T07:47:45;102668.09;;;13.66;77.53
20909;BME280;10614;53.198;6.570;2023-05-20T07:49:46;102634.03;;;13.52;77.01
20909;BME280;10614;53.198;6.570;2023-05-20T07:51:50;102645.16;;;13.67;77.02
20909;BME280;10614;53.198;6.570;2023-05-20T07:53:52;102645.03;;;13.71;76.65
20909;BME280;10614;53.198;6.570;2023-05-20T07:55:54;102635.34;;;13.72;76.63
20909;BME280;10614;53.198;6.570;2023-05-20T07:57:57;102644.81;;;13.81;76.37
20909;BME280;10614;53.198;6.570;2023-05-20T08:00:01;102653.38;;;13.90;76.88
20909;BME280;10614;53.198;6.570;2023-05-20T08:02:04;102657.78;;;13.91;76.48
20909;BME280;10614;53.198;6.570;2023-05-20T08:04:06;102657.59;;;13.99;76.31
20909;BME280;10614;53.198;6.570;2023-05-20T08:06:08;102646.97;;;14.01;76.01
20909;BME280;10614;53.198;6.570;2023-05-20T08:08:11;102647.63;;;14.09;76.23
20909;BME280;10614;53.198;6.570;2023-05-20T08:10:13;102652.78;;;14.15;76.36
20909;BME280;10614;53.198;6.570;2023-05-20T08:12:15;102647.50;;;14.13;76.92
20909;BME280;10614;53.198;6.570;2023-05-20T08:22:51;102615.56;;;14.21;75.42
20909;BME280;10614;53.198;6.570;2023-05-20T08:24:56;102634.53;;;14.37;76.01
20909;BME280;10614;53.198;6.570;2023-05-20T08:26:58;102613.53;;;14.29;75.35
20909;BME280;10614;53.198;6.570;2023-05-20T08:29:04;102647.34;;;14.54;75.70
20909;BME280;10614;53.198;6.570;2023-05-20T08:31:07;102639.31;;;14.57;75.13
20909;BME280;10614;53.198;6.570;2023-05-20T08:33:10;102635.69;;;14.61;75.51
20909;BME280;10614;53.198;6.570;2023-05-20T08:35:12;102630.28;;;14.64;75.46
20909;BME280;10614;53.198;6.570;2023-05-20T08:37:14;102630.97;;;14.71;75.69
20909;BME280;10614;53.198;6.570;2023-05-20T08:39:16;102637.84;;;14.78;75.66
20909;BME280;10614;53.198;6.570;2023-05-20T08:41:22;102595.72;;;14.67;74.37
20909;BME280;10614;53.198;6.570;2023-05-20T08:43:26;102598.97;;;14.77;73.83
20909;BME280;10614;53.198;6.570;2023-05-20T08:45:33;102603.94;;;14.89;73.95
20909;BME280;10614;53.198;6.570;2023-05-20T08:47:35;102595.16;;;14.87;72.97
20909;BME280;10614;53.198;6.570;2023-05-20T08:49:38;102616.78;;;15.03;73.06
20909;BME280;10614;53.198;6.570;2023-05-20T08:51:40;102599.97;;;15.03;73.33
20909;BME280;10614;53.198;6.570;2023-05-20T08:53:45;102612.19;;;15.08;72.83
20909;BME280;10614;53.198;6.570;2023-05-20T08:58:02;102560.81;;;14.83;73.98
20909;BME280;10614;53.198;6.570;2023-05-20T09:00:07;102558.25;;;14.80;73.35
20909;BME280;10614;53.198;6.570;2023-05-20T09:02:15;102590.91;;;15.10;73.31
20909;BME280;10614;53.198;6.570;2023-05-20T09:04:20;102576.25;;;14.98;73.20
20909;BME280;10614;53.198;6.570;2023-05-20T09:06:25;102555.03;;;14.98;72.02
20909;BME280;10614;53.198;6.570;2023-05-20T09:14:54;102595.00;;;15.48;71.82
20909;BME280;10614;53.198;6.570;2023-05-20T09:16:56;102606.28;;;15.55;71.81
20909;BME280;10614;53.198;6.570;2023-05-20T09:21:16;102569.66;;;15.38;71.97
20909;BME280;10614;53.198;6.570;2023-05-20T09:51:33;102553.06;;;16.11;68.07
20909;BME280;10614;53.198;6.570;2023-05-20T09:53:43;102504.75;;;16.00;68.54
20909;BME280;10614;53.198;6.570;2023-05-20T09:55:49;102521.34;;;16.07;67.13
20909;BME280;10614;53.198;6.570;2023-05-20T09:57:53;102563.63;;;16.36;66.70
20909;BME280;10614;53.198;6.570;2023-05-20T09:59:57;102555.50;;;16.41;66.49
20909;BME280;10614;53.198;6.570;2023-05-20T10:01:59;102544.94;;;16.39;65.30
20909;BME280;10614;53.198;6.570;2023-05-20T10:04:03;102553.13;;;16.57;64.02
20909;BME280;10614;53.198;6.570;2023-05-20T10:06:22;102556.03;;;16.74;64.69
20909;BME280;10614;53.198;6.570;2023-05-20T10:08:42;102541.78;;;16.75;63.95
20909;BME280;10614;53.198;6.570;2023-05-20T10:10:53;102557.00;;;16.95;62.48
20909;BME280;10614;53.198;6.570;2023-05-20T10:13:07;102530.22;;;17.00;62.83
20909;BME280;10614;53.198;6.570;2023-05-20T10:15:17;102549.72;;;17.00;62.82
20909;BME280;10614;53.198;6.570;2023-05-20T10:17:27;102506.72;;;16.89;62.63
20909;BME280;10614;53.198;6.570;2023-05-20T10:19:33;102541.28;;;17.11;62.56
20909;BME280;10614;53.198;6.570;2023-05-20T10:21:35;102544.13;;;17.28;62.03
20909;BME280;10614;53.198;6.570;2023-05-20T10:23:38;102538.53;;;17.35;60.96
20909;BME280;10614;53.198;6.570;2023-05-20T10:25:49;102522.50;;;17.36;61.36
20909;BME280;10614;53.198;6.570;2023-05-20T10:27:51;102533.34;;;17.54;61.13
20909;BME280;10614;53.198;6.570;2023-05-20T10:30:14;102518.75;;;17.62;62.16
20909;BME280;10614;53.198;6.570;2023-05-20T10:32:23;102531.25;;;17.82;61.58
20909;BME280;10614;53.198;6.570;2023-05-20T10:34:25;102513.84;;;17.94;60.37
20909;BME280;10614;53.198;6.570;2023-05-20T10:36:29;102518.22;;;18.16;60.88
20909;BME280;10614;53.198;6.570;2023-05-20T10:38:31;102514.19;;;18.45;60.08
20909;BME280;10614;53.198;6.570;2023-05-20T10:40:34;102515.66;;;18.71;60.41
20909;BME280;10614;53.198;6.570;2023-05-20T10:47:10;102443.88;;;18.47;56.00
20909;BME280;10614;53.198;6.570;2023-05-20T10:49:58;102501.53;;;18.88;57.00
20909;BME280;10614;53.198;6.570;2023-05-20T10:52:42;102513.75;;;19.11;58.58
20909;BME280;10614;53.198;6.570;2023-05-20T10:55:17;102464.41;;;18.83;59.82
20909;BME280;10614;53.198;6.570;2023-05-20T11:01:22;102428.19;;;18.96;61.09
20909;BME280;10614;53.198;6.570;2023-05-20T11:02:53;102425.09;;;19.22;61.17
20909;BME280;10614;53.198;6.570;2023-05-20T11:05:17;102509.34;;;19.97;60.32
20909;BME280;10614;53.198;6.570;2023-05-20T11:07:31;102423.69;;;19.49;59.17
20909;BME280;10614;53.198;6.570;2023-05-20T11:09:51;102399.63;;;19.49;59.93
20909;BME280;10614;53.198;6.570;2023-05-20T11:12:06;102484.03;;;20.04;59.95
20909;BME280;10614;53.198;6.570;2023-05-20T11:14:12;102478.00;;;20.00;58.58
20909;BME280;10614;53.198;6.570;2023-05-20T11:24:45;102411.25;;;19.83;59.50
20909;BME280;10614;53.198;6.570;2023-05-20T11:26:49;102457.84;;;20.27;57.51
20909;BME280;10614;53.198;6.570;2023-05-20T11:28:56;102416.34;;;20.03;58.18
20909;BME280;10614;53.198;6.570;2023-05-20T11:31:04;102391.81;;;19.79;57.85
20909;BME280;10614;53.198;6.570;2023-05-20T11:33:28;102388.44;;;19.76;58.35
20909;BME280;10614;53.198;6.570;2023-05-20T11:35:55;102376.66;;;19.80;58.74
20909;BME280;10614;53.198;6.570;2023-05-20T11:38:04;102395.09;;;19.85;57.58
20909;BME280;10614;53.198;6.570;2023-05-20T11:40:24;102445.78;;;20.19;58.57
20909;BME280;10614;53.198;6.570;2023-05-20T11:42:30;102474.16;;;20.38;58.12
20909;BME280;10614;53.198;6.570;2023-05-20T11:44:48;102413.34;;;20.10;59.42
20909;BME280;10614;53.198;6.570;2023-05-20T11:47:00;102375.22;;;20.22;60.64
20909;BME280;10614;53.198;6.570;2023-05-20T11:49:40;102458.66;;;20.76;56.37
20909;BME280;10614;53.198;6.570;2023-05-20T11:52:12;102396.75;;;20.51;57.30
20909;BME280;10614;53.198;6.570;2023-05-20T11:54:20;102379.34;;;20.75;57.85
20909;BME280;10614;53.198;6.570;2023-05-20T11:56:27;102442.22;;;21.59;59.56
20909;BME280;10614;53.198;6.570;2023-05-20T11:58:38;102430.81;;;21.69;57.82
20909;BME280;10614;53.198;6.570;2023-05-20T12:00:50;102406.13;;;21.93;57.27
20909;BME280;10614;53.198;6.570;2023-05-20T12:03:08;102410.22;;;22.27;56.03
20909;BME280;10614;53.198;6.570;2023-05-20T12:05:11;102425.25;;;22.30;54.40
20909;BME280;10614;53.198;6.570;2023-05-20T12:07:13;102424.56;;;22.41;56.39
20909;BME280;10614;53.198;6.570;2023-05-20T12:09:16;102414.06;;;22.23;53.01
20909;BME280;10614;53.198;6.570;2023-05-20T12:11:20;102436.47;;;22.08;52.79
20909;BME280;10614;53.198;6.570;2023-05-20T12:13:25;102388.41;;;21.76;54.53
20909;BME280;10614;53.198;6.570;2023-05-20T12:15:33;102397.59;;;21.86;54.34
20909;BME280;10614;53.198;6.570;2023-05-20T12:17:46;102435.84;;;22.17;53.91
20909;BME280;10614;53.198;6.570;2023-05-20T12:19:54;102370.34;;;21.80;53.35
20909;BME280;10614;53.198;6.570;2023-05-20T12:22:00;102383.28;;;22.14;54.29
20909;BME280;10614;53.198;6.570;2023-05-20T12:24:06;102419.91;;;22.57;53.08
20909;BME280;10614;53.198;6.570;2023-05-20T12:26:10;102432.06;;;22.63;52.99
20909;BME280;10614;53.198;6.570;2023-05-20T12:28:12;102413.25;;;22.36;50.86
20909;BME280;10614;53.198;6.570;2023-05-20T12:30:24;102387.59;;;22.17;51.39
20909;BME280;10614;53.198;6.570;2023-05-20T12:32:32;102386.38;;;22.23;50.53
20909;BME280;10614;53.198;6.570;2023-05-20T12:34:36;102364.25;;;22.05;50.88
20909;BME280;10614;53.198;6.570;2023-05-20T12:36:43;102418.13;;;22.70;51.86
20909;BME280;10614;53.198;6.570;2023-05-20T12:38:46;102368.97;;;22.83;52.26
20909;BME280;10614;53.198;6.570;2023-05-20T12:40:49;102388.06;;;23.05;50.56
20909;BME280;10614;53.198;6.570;2023-05-20T12:42:52;102414.06;;;23.17;49.90
20909;BME280;10614;53.198;6.570;2023-05-20T12:44:54;102375.00;;;22.86;51.36
20909;BME280;10614;53.198;6.570;2023-05-20T12:47:00;102370.56;;;23.12;52.12
20909;BME280;10614;53.198;6.570;2023-05-20T12:49:08;102388.19;;;23.55;51.53
20909;BME280;10614;53.198;6.570;2023-05-20T12:51:11;102344.34;;;23.29;50.69
20909;BME280;10614;53.198;6.570;2023-05-20T12:53:17;102318.00;;;22.95;50.30
20909;BME280;10614;53.198;6.570;2023-05-20T12:55:22;102325.75;;;23.00;52.08
20909;BME280;10614;53.198;6.570;2023-05-20T12:57:30;102347.88;;;23.29;51.16
20909;BME280;10614;53.198;6.570;2023-05-20T12:59:42;102320.78;;;22.94;49.28
20909;BME280;10614;53.198;6.570;2023-05-20T13:01:51;102318.03;;;22.55;50.93
20909;BME280;10614;53.198;6.570;2023-05-20T13:03:59;102408.53;;;22.93;51.68
20909;BME280;10614;53.198;6.570;2023-05-20T13:06:16;102368.56;;;22.76;51.90
20909;BME280;10614;53.198;6.570;2023-05-20T13:08:22;102381.91;;;22.90;52.68
20909;BME280;10614;53.198;6.570;2023-05-20T13:10:25;102306.69;;;22.77;52.60
20909;BME280;10614;53.198;6.570;2023-05-20T13:12:33;102303.50;;;22.85;52.46
20909;BME280;10614;53.198;6.570;2023-05-20T13:14:48;102348.38;;;22.83;49.61
20909;BME280;10614;53.198;6.570;2023-05-20T13:17:04;102295.75;;;22.13;49.84
20909;BME280;10614;53.198;6.570;2023-05-20T13:19:14;102317.09;;;21.88;50.38
20909;BME280;10614;53.198;6.570;2023-05-20T13:21:50;102370.94;;;22.12;51.84
20909;BME280;10614;53.198;6.570;2023-05-20T13:24:08;102374.03;;;22.06;51.85
20909;BME280;10614;53.198;6.570;2023-05-20T13:26:25;102372.53;;;21.87;52.48
20909;BME280;10614;53.198;6.570;2023-05-20T13:28:43;102268.22;;;21.27;52.46
20909;BME280;10614;53.198;6.570;2023-05-20T13:30:47;102375.50;;;21.54;52.78
20909;BME280;10614;53.198;6.570;2023-05-20T13:33:17;102281.25;;;20.74;54.25
20909;BME280;10614;53.198;6.570;2023-05-20T13:35:47;102376.63;;;21.36;55.13
20909;BME280;10614;53.198;6.570;2023-05-20T13:37:56;102282.88;;;21.36;54.37
20909;BME280;10614;53.198;6.570;2023-05-20T13:40:02;102356.72;;;21.97;53.57
20909;BME280;10614;53.198;6.570;2023-05-20T13:42:14;102280.22;;;21.50;52.38
20909;BME280;10614;53.198;6.570;2023-05-20T13:44:16;102368.88;;;21.88;52.93
20909;BME280;10614;53.198;6.570;2023-05-20T13:46:19;102339.78;;;21.68;54.15
20909;BME280;10614;53.198;6.570;2023-05-20T13:48:25;102311.03;;;21.43;53.91
20909;BME280;10614;53.198;6.570;2023-05-20T13:50:32;102311.28;;;21.24;54.02
20909;BME280;10614;53.198;6.570;2023-05-20T13:52:45;102308.72;;;20.92;54.66
20909;BME280;10614;53.198;6.570;2023-05-20T13:54:49;102326.88;;;21.32;55.06
20909;BME280;10614;53.198;6.570;2023-05-20T13:56:55;102295.63;;;21.88;54.02
20909;BME280;10614;53.198;6.570;2023-05-20T13:59:02;102340.75;;;22.50;51.60
20909;BME280;10614;53.198;6.570;2023-05-20T14:01:08;102303.72;;;22.15;50.79
20909;BME280;10614;53.198;6.570;2023-05-20T14:03:18;102347.84;;;22.24;51.31
20909;BME280;10614;53.198;6.570;2023-05-20T14:05:20;102317.03;;;21.75;51.57
20909;BME280;10614;53.198;6.570;2023-05-20T14:07:22;102289.19;;;21.49;52.93
20909;BME280;10614;53.198;6.570;2023-05-20T14:09:25;102311.03;;;21.43;52.30
20909;BME280;10614;53.198;6.570;2023-05-20T14:11:27;102310.72;;;21.33;52.76
20909;BME280;10614;53.198;6.570;2023-05-20T14:13:29;102329.16;;;21.38;52.79
20909;BME280;10614;53.198;6.570;2023-05-20T14:15:31;102288.41;;;21.33;53.49
20909;BME280;10614;53.198;6.570;2023-05-20T14:17:33;102326.84;;;21.89;53.01
20909;BME280;10614;53.198;6.570;2023-05-20T14:19:35;102331.44;;;22.01;52.62